Time;durP1;ratioP1;P1;durP2;ratioP2;P2;SDS_P1;SDS_P2;PMS_P1;PMS_P2;Temp;Humidity;BMP_temperature;BMP_pressure;BME280_temperature;BME280_humidity;BME280_pressure;Samples;Min_cycle;Max_cycle;Signal;HPM_P1;HPM_P2
2021/05/28 00:01:15;;;;;;;25.15;6.10;;;;;;;;;;4909340;29;20198;-59
2021/05/28 00:03:41;;;;;;;19.85;6.75;;;;;;;;;;4922168;28;20039;-59
2021/05/28 00:06:07;;;;;;;34.22;7.60;;;;;;;;;;4906231;29;20040;-60
2021/05/28 00:08:38;;;;;;;18.55;6.88;;;;;;;;;;4908248;29;20031;-59
2021/05/28 00:11:05;;;;;;;22.65;6.88;;;;;;;;;;4908847;29;20051;-61
2021/05/28 00:13:34;;;;;;;23.20;5.95;;;;;;;;;;4905510;29;20091;-59
2021/05/28 00:16:00;;;;;;;16.58;4.95;;;;;;;;;;4906535;29;20056;-59
2021/05/28 00:18:29;;;;;;;15.93;4.47;;;;;;;;;;4906584;29;20475;-60
2021/05/28 00:20:55;;;;;;;25.10;5.57;;;;;;;;;;4906555;29;20054;-59
2021/05/28 00:23:21;;;;;;;13.93;5.85;;;;;;;;;;4906926;29;20066;-60
2021/05/28 00:25:49;;;;;;;15.90;4.63;;;;;;;;;;4912115;29;20074;-58
2021/05/28 00:28:15;;;;;;;20.50;5.18;;;;;;;;;;4920974;28;20090;-59
2021/05/28 00:30:43;;;;;;;27.13;6.28;;;;;;;;;;4905028;29;20028;-59
2021/05/28 00:33:11;;;;;;;17.60;5.63;;;;;;;;;;4907267;29;20047;-59
2021/05/28 00:35:37;;;;;;;15.05;5.53;;;;;;;;;;4923024;29;20038;-60
2021/05/28 00:38:05;;;;;;;11.80;4.55;;;;;;;;;;4906458;29;20043;-58
2021/05/28 00:40:31;;;;;;;22.90;6.55;;;;;;;;;;4917617;28;20047;-60
2021/05/28 00:43:00;;;;;;;27.02;5.70;;;;;;;;;;4891644;29;20048;-60
2021/05/28 00:45:26;;;;;;;18.13;5.18;;;;;;;;;;4907153;29;20031;-59
2021/05/28 00:47:54;;;;;;;19.70;5.30;;;;;;;;;;4906006;29;20094;-59
2021/05/28 00:50:19;;;;;;;17.48;5.10;;;;;;;;;;4906185;29;20724;-60
2021/05/28 00:52:49;;;;;;;14.88;4.53;;;;;;;;;;4908203;29;20036;-61
2021/05/28 00:55:14;;;;;;;18.13;5.63;;;;;;;;;;4904563;29;20035;-60
2021/05/28 00:57:41;;;;;;;18.27;4.95;;;;;;;;;;4904951;29;20100;-59
2021/05/28 01:00:07;;;;;;;21.40;6.10;;;;;;;;;;4920868;28;20042;-59
2021/05/28 01:02:36;;;;;;;15.88;5.03;;;;;;;;;;4907701;29;20035;-59
2021/05/28 01:05:01;;;;;;;19.73;4.80;;;;;;;;;;4907460;29;20058;-60
2021/05/28 01:07:27;;;;;;;14.52;4.88;;;;;;;;;;4906661;29;20154;-60
2021/05/28 01:09:53;;;;;;;19.52;5.07;;;;;;;;;;4894187;29;20058;-59
2021/05/28 01:12:21;;;;;;;26.58;5.13;;;;;;;;;;4904523;29;20071;-60
2021/05/28 01:14:50;;;;;;;16.30;5.13;;;;;;;;;;4904836;29;20044;-61
2021/05/28 01:17:16;;;;;;;11.35;4.10;;;;;;;;;;4892254;29;20039;-58
2021/05/28 01:19:42;;;;;;;17.45;5.07;;;;;;;;;;4903322;29;20036;-58
2021/05/28 01:22:07;;;;;;;14.48;4.05;;;;;;;;;;4911948;29;20027;-60
2021/05/28 01:24:35;;;;;;;22.58;5.22;;;;;;;;;;4905253;29;20031;-59
2021/05/28 01:27:04;;;;;;;19.77;4.28;;;;;;;;;;4916789;28;20039;-59
2021/05/28 01:29:32;;;;;;;21.55;5.38;;;;;;;;;;4907260;29;20028;-58
2021/05/28 01:31:58;;;;;;;17.58;5.10;;;;;;;;;;4904122;29;20056;-60
2021/05/28 01:34:25;;;;;;;15.40;4.57;;;;;;;;;;4907668;29;20051;-61
2021/05/28 01:36:51;;;;;;;15.98;4.95;;;;;;;;;;4907290;29;20032;-59
2021/05/28 01:39:17;;;;;;;14.45;5.88;;;;;;;;;;4903407;29;20047;-60
2021/05/28 01:41:45;;;;;;;21.98;7.60;;;;;;;;;;4905796;29;20086;-59
2021/05/28 01:44:13;;;;;;;26.52;7.40;;;;;;;;;;4889704;29;20035;-59
2021/05/28 01:46:41;;;;;;;30.33;9.13;;;;;;;;;;4894516;29;20031;-59
2021/05/28 01:49:07;;;;;;;15.35;6.55;;;;;;;;;;4905150;29;20039;-59
2021/05/28 01:51:47;;;;;;;22.48;6.80;;;;;;;;;;4907859;29;20031;-59
2021/05/28 01:54:13;;;;;;;19.77;6.82;;;;;;;;;;4921266;28;20146;-60
2021/05/28 01:56:40;;;;;;;26.33;8.32;;;;;;;;;;4909221;29;20032;-60
2021/05/28 01:59:08;;;;;;;25.38;9.13;;;;;;;;;;4909063;29;20063;-59
2021/05/28 02:01:35;;;;;;;26.60;8.18;;;;;;;;;;4909037;29;20036;-59
2021/05/28 02:04:00;;;;;;;29.85;8.20;;;;;;;;;;4910844;29;20038;-58
2021/05/28 02:06:26;;;;;;;27.67;8.43;;;;;;;;;;4900628;29;20031;-60
2021/05/28 02:08:53;;;;;;;30.17;7.70;;;;;;;;;;4909633;29;20043;-60
2021/05/28 02:11:21;;;;;;;22.33;5.70;;;;;;;;;;4910502;29;20039;-59
2021/05/28 02:13:46;;;;;;;13.80;4.93;;;;;;;;;;4903903;29;20114;-59
2021/05/28 02:16:17;;;;;;;25.90;6.55;;;;;;;;;;4904685;29;20043;-59
2021/05/28 02:18:42;;;;;;;25.40;7.05;;;;;;;;;;4907994;29;20070;-59
2021/05/28 02:21:09;;;;;;;24.98;7.32;;;;;;;;;;4910712;29;21372;-60
2021/05/28 02:23:36;;;;;;;23.75;6.50;;;;;;;;;;4908637;29;20146;-59
2021/05/28 02:26:04;;;;;;;18.27;6.43;;;;;;;;;;4924495;29;20038;-59
2021/05/28 02:28:34;;;;;;;20.58;5.90;;;;;;;;;;4923533;28;20103;-59
2021/05/28 02:31:03;;;;;;;11.43;5.32;;;;;;;;;;4907747;29;20039;-59
2021/05/28 02:33:28;;;;;;;17.60;6.25;;;;;;;;;;4907075;29;20040;-60
2021/05/28 02:35:54;;;;;;;15.73;5.88;;;;;;;;;;4908726;29;21012;-60
2021/05/28 02:38:20;;;;;;;9.90;5.30;;;;;;;;;;4908409;29;20047;-60
2021/05/28 02:40:48;;;;;;;21.35;6.05;;;;;;;;;;4894561;29;20090;-59
2021/05/28 02:43:16;;;;;;;19.30;6.15;;;;;;;;;;4908590;29;20047;-60
2021/05/28 02:45:44;;;;;;;22.33;5.72;;;;;;;;;;4908049;29;20036;-60
2021/05/28 02:48:10;;;;;;;19.30;5.68;;;;;;;;;;4908610;29;20084;-60
2021/05/28 02:50:38;;;;;;;18.15;6.45;;;;;;;;;;4923430;28;20553;-59
2021/05/28 02:53:04;;;;;;;21.40;6.05;;;;;;;;;;4894860;29;20047;-59
2021/05/28 02:55:29;;;;;;;14.20;5.88;;;;;;;;;;4908968;29;20040;-60
2021/05/28 02:57:57;;;;;;;22.85;4.95;;;;;;;;;;4907116;29;20944;-59
2021/05/28 03:00:23;;;;;;;25.70;5.70;;;;;;;;;;4898441;29;20039;-59
2021/05/28 03:02:50;;;;;;;16.25;5.65;;;;;;;;;;4908523;29;21992;-59
2021/05/28 03:05:18;;;;;;;13.93;5.03;;;;;;;;;;4910388;29;20024;-60
2021/05/28 03:07:43;;;;;;;20.65;5.32;;;;;;;;;;4909332;29;20094;-59
2021/05/28 03:10:12;;;;;;;8.20;3.90;;;;;;;;;;4907782;29;20044;-60
2021/05/28 03:12:40;;;;;;;14.88;4.95;;;;;;;;;;4908624;29;20047;-60
2021/05/28 03:15:08;;;;;;;14.25;4.28;;;;;;;;;;4893788;29;20032;-60
2021/05/28 03:17:41;;;;;;;22.75;10.65;;;;;;;;;;4908151;29;20036;-59
2021/05/28 03:20:17;;;;;;;12.32;5.57;;;;;;;;;;4912897;29;20419;-60
2021/05/28 03:22:43;;;;;;;14.25;5.45;;;;;;;;;;4909191;29;20115;-60
2021/05/28 03:25:11;;;;;;;15.40;4.70;;;;;;;;;;4905107;29;20024;-59
2021/05/28 03:27:39;;;;;;;17.83;4.93;;;;;;;;;;4907457;29;20172;-60
2021/05/28 03:30:06;;;;;;;11.70;4.18;;;;;;;;;;4893634;29;20061;-59
2021/05/28 03:32:33;;;;;;;15.50;4.65;;;;;;;;;;4921413;28;20055;-59
2021/05/28 03:34:59;;;;;;;11.57;4.45;;;;;;;;;;4922367;28;20165;-59
2021/05/28 03:37:30;;;;;;;10.95;4.32;;;;;;;;;;4907567;29;20069;-58
2021/05/28 03:39:55;;;;;;;19.02;4.60;;;;;;;;;;4909652;29;20052;-59
2021/05/28 03:42:21;;;;;;;14.05;4.70;;;;;;;;;;4905907;29;20070;-59
2021/05/28 03:44:47;;;;;;;11.38;4.28;;;;;;;;;;4908382;29;20134;-60
2021/05/28 03:47:15;;;;;;;10.15;4.25;;;;;;;;;;4911315;29;20138;-59
2021/05/28 03:49:42;;;;;;;17.85;3.20;;;;;;;;;;4905836;29;20090;-60
2021/05/28 03:52:10;;;;;;;7.78;3.72;;;;;;;;;;4908122;29;20494;-60
2021/05/28 03:54:36;;;;;;;5.93;3.60;;;;;;;;;;4908329;29;22141;-60
2021/05/28 03:57:05;;;;;;;10.88;4.68;;;;;;;;;;4908197;29;20150;-60
2021/05/28 03:59:30;;;;;;;11.25;3.80;;;;;;;;;;4907065;29;20035;-60
2021/05/28 04:01:56;;;;;;;8.15;3.10;;;;;;;;;;4904853;29;20091;-60
2021/05/28 04:04:22;;;;;;;7.32;3.65;;;;;;;;;;4908011;29;20123;-60
2021/05/28 04:06:52;;;;;;;13.65;4.50;;;;;;;;;;4921424;29;20479;-60
2021/05/28 04:09:21;;;;;;;11.18;4.53;;;;;;;;;;4907682;29;20070;-61
2021/05/28 04:11:46;;;;;;;18.25;5.88;;;;;;;;;;4907022;29;20665;-59
2021/05/28 04:14:17;;;;;;;8.63;4.53;;;;;;;;;;4907383;29;20027;-61
2021/05/28 04:16:43;;;;;;;19.10;4.97;;;;;;;;;;4906535;29;20032;-60
2021/05/28 04:19:09;;;;;;;12.77;4.78;;;;;;;;;;4908337;29;20039;-61
2021/05/28 04:21:37;;;;;;;11.68;4.57;;;;;;;;;;4895191;29;20235;-60
2021/05/28 04:24:03;;;;;;;10.00;4.80;;;;;;;;;;4905788;29;20590;-61
2021/05/28 04:26:29;;;;;;;10.38;4.88;;;;;;;;;;4905563;29;20035;-60
2021/05/28 04:28:54;;;;;;;15.68;5.38;;;;;;;;;;4908280;29;20036;-61
2021/05/28 04:31:20;;;;;;;10.75;5.60;;;;;;;;;;4911889;29;20027;-61
2021/05/28 04:33:46;;;;;;;18.25;5.15;;;;;;;;;;4890982;29;20039;-60
2021/05/28 04:36:14;;;;;;;12.52;5.25;;;;;;;;;;4912575;29;20241;-60
2021/05/28 04:38:40;;;;;;;16.38;4.72;;;;;;;;;;4913303;28;20411;-59
2021/05/28 04:41:06;;;;;;;18.83;5.55;;;;;;;;;;4893590;29;20046;-61
2021/05/28 04:43:32;;;;;;;16.55;5.95;;;;;;;;;;4921133;28;20039;-60
2021/05/28 04:45:58;;;;;;;16.40;5.70;;;;;;;;;;4908096;29;20522;-61
2021/05/28 04:48:24;;;;;;;18.00;6.88;;;;;;;;;;4904030;29;20760;-60
2021/05/28 04:50:49;;;;;;;16.73;6.15;;;;;;;;;;4904950;29;20032;-59
2021/05/28 04:53:20;;;;;;;10.88;5.97;;;;;;;;;;4904236;29;20062;-62
2021/05/28 04:55:48;;;;;;;16.15;5.38;;;;;;;;;;4888156;29;20039;-61
2021/05/28 04:58:14;;;;;;;12.23;5.47;;;;;;;;;;4904905;29;20028;-62
2021/05/28 05:00:40;;;;;;;15.55;5.93;;;;;;;;;;4916687;29;20039;-60
2021/05/28 05:03:07;;;;;;;16.42;6.60;;;;;;;;;;4907446;29;20044;-60
2021/05/28 05:05:33;;;;;;;17.40;6.88;;;;;;;;;;4889772;29;20074;-61
2021/05/28 05:07:59;;;;;;;15.75;5.93;;;;;;;;;;4907038;29;21055;-61
2021/05/28 05:10:28;;;;;;;21.10;6.35;;;;;;;;;;4904236;29;20063;-60
2021/05/28 05:12:56;;;;;;;17.42;5.15;;;;;;;;;;4905341;29;20032;-60
2021/05/28 05:15:21;;;;;;;14.25;5.38;;;;;;;;;;4889447;29;20122;-60
2021/05/28 05:17:51;;;;;;;8.93;4.53;;;;;;;;;;4905458;29;20027;-60
2021/05/28 05:20:17;;;;;;;12.30;5.07;;;;;;;;;;4903032;29;20032;-59
2021/05/28 05:22:43;;;;;;;24.27;6.40;;;;;;;;;;4888649;29;21558;-62
2021/05/28 05:25:11;;;;;;;12.52;5.35;;;;;;;;;;4903796;29;20179;-59
2021/05/28 05:27:36;;;;;;;17.33;5.05;;;;;;;;;;4908386;29;20032;-60
2021/05/28 05:30:03;;;;;;;13.05;4.80;;;;;;;;;;4911848;29;20043;-59
2021/05/28 05:32:31;;;;;;;11.23;4.63;;;;;;;;;;4906658;29;20070;-60
2021/05/28 05:34:57;;;;;;;12.55;4.72;;;;;;;;;;4910323;29;20119;-60
2021/05/28 05:37:31;;;;;;;20.15;4.68;;;;;;;;;;4904973;29;21637;-62
2021/05/28 05:39:57;;;;;;;14.77;4.82;;;;;;;;;;4895267;29;20279;-59
2021/05/28 05:42:28;;;;;;;13.52;3.92;;;;;;;;;;4908457;29;20035;-61
2021/05/28 05:44:56;;;;;;;14.98;3.75;;;;;;;;;;4910501;29;20028;-60
2021/05/28 05:47:25;;;;;;;12.75;4.05;;;;;;;;;;4909595;29;20031;-60
2021/05/28 05:49:54;;;;;;;10.75;3.90;;;;;;;;;;4923752;28;20036;-60
2021/05/28 05:52:22;;;;;;;7.63;3.53;;;;;;;;;;4909036;29;21682;-62
2021/05/28 05:54:47;;;;;;;10.25;3.97;;;;;;;;;;4911098;29;20485;-59
2021/05/28 05:57:13;;;;;;;6.90;3.08;;;;;;;;;;4918520;28;20158;-61
2021/05/28 05:59:42;;;;;;;10.10;4.68;;;;;;;;;;4906223;29;20620;-60
2021/05/28 06:02:11;;;;;;;8.93;4.40;;;;;;;;;;4913782;28;20047;-61
2021/05/28 06:04:37;;;;;;;9.55;4.25;;;;;;;;;;4907774;29;20027;-60
2021/05/28 06:07:02;;;;;;;10.73;4.35;;;;;;;;;;4906482;29;20040;-60
2021/05/28 06:09:30;;;;;;;8.65;4.22;;;;;;;;;;4905102;29;20036;-60
2021/05/28 06:11:59;;;;;;;11.23;4.53;;;;;;;;;;4909308;29;20028;-59
2021/05/28 06:14:27;;;;;;;11.30;4.50;;;;;;;;;;4909175;29;20091;-60
2021/05/28 06:17:01;;;;;;;13.50;4.55;;;;;;;;;;4906789;29;20651;-59
2021/05/28 06:19:27;;;;;;;11.18;4.82;;;;;;;;;;4909647;29;20039;-59
2021/05/28 06:21:52;;;;;;;11.93;3.72;;;;;;;;;;4908690;29;20471;-60
2021/05/28 06:24:21;;;;;;;13.30;4.75;;;;;;;;;;4907856;29;20172;-60
2021/05/28 06:26:54;;;;;;;12.27;3.97;;;;;;;;;;4906655;29;20366;-60
2021/05/28 06:29:20;;;;;;;10.73;4.45;;;;;;;;;;4906132;29;20389;-60
2021/05/28 06:31:45;;;;;;;10.40;3.90;;;;;;;;;;4910327;29;20035;-62
2021/05/28 06:34:11;;;;;;;8.75;3.25;;;;;;;;;;4909469;29;20090;-61
2021/05/28 06:36:39;;;;;;;8.75;3.50;;;;;;;;;;4897504;29;20087;-60
2021/05/28 06:39:10;;;;;;;7.43;2.85;;;;;;;;;;4922109;28;20051;-61
2021/05/28 06:41:36;;;;;;;8.10;3.35;;;;;;;;;;4908392;29;21878;-61
2021/05/28 06:44:05;;;;;;;5.90;3.33;;;;;;;;;;4922677;29;20083;-67
2021/05/28 06:46:32;;;;;;;11.43;3.35;;;;;;;;;;4905242;29;20039;-62
2021/05/28 06:49:02;;;;;;;5.15;2.90;;;;;;;;;;4905895;29;20347;-61
2021/05/28 06:51:34;;;;;;;6.57;3.13;;;;;;;;;;4905687;29;20790;-61
2021/05/28 06:54:02;;;;;;;7.05;2.67;;;;;;;;;;4905160;29;20040;-62
2021/05/28 06:56:41;;;;;;;7.40;2.40;;;;;;;;;;4904646;29;20122;-62
2021/05/28 06:59:11;;;;;;;6.43;2.75;;;;;;;;;;4904332;29;20158;-62
2021/05/28 07:01:36;;;;;;;6.88;3.03;;;;;;;;;;4903484;29;20035;-61
2021/05/28 07:04:03;;;;;;;5.57;2.88;;;;;;;;;;4904592;29;20027;-62
2021/05/28 07:06:32;;;;;;;6.28;2.88;;;;;;;;;;4909201;29;20980;-61
2021/05/28 07:08:58;;;;;;;7.82;2.58;;;;;;;;;;4907451;29;20510;-60
2021/05/28 07:11:24;;;;;;;7.00;2.13;;;;;;;;;;4909361;29;20609;-61
2021/05/28 07:13:50;;;;;;;6.47;2.53;;;;;;;;;;4905247;29;21996;-63
2021/05/28 07:16:18;;;;;;;6.07;2.22;;;;;;;;;;4904216;29;20119;-63
2021/05/28 07:18:44;;;;;;;7.63;2.25;;;;;;;;;;4904467;29;22231;-60
2021/05/28 07:21:10;;;;;;;10.80;2.28;;;;;;;;;;4906275;29;20023;-61
2021/05/28 07:23:36;;;;;;;10.77;2.42;;;;;;;;;;4905532;29;20593;-61
2021/05/28 07:26:03;;;;;;;5.03;1.92;;;;;;;;;;4907743;29;20036;-61
2021/05/28 07:28:31;;;;;;;7.63;2.08;;;;;;;;;;4889661;29;20032;-61
2021/05/28 07:30:58;;;;;;;6.43;2.35;;;;;;;;;;4893386;29;20031;-61
2021/05/28 07:33:26;;;;;;;9.15;1.88;;;;;;;;;;4905035;29;20067;-61
2021/05/28 07:35:55;;;;;;;3.92;1.77;;;;;;;;;;4903042;29;20036;-60
2021/05/28 07:38:21;;;;;;;4.10;1.77;;;;;;;;;;4908020;29;20092;-60
2021/05/28 07:40:49;;;;;;;8.38;2.00;;;;;;;;;;4905795;29;20055;-62
2021/05/28 07:43:17;;;;;;;4.78;1.55;;;;;;;;;;4906103;29;20043;-62
2021/05/28 07:45:48;;;;;;;3.45;1.25;;;;;;;;;;4908634;29;20036;-62
2021/05/28 07:48:18;;;;;;;2.88;1.17;;;;;;;;;;4890953;29;20036;-60
2021/05/28 07:50:47;;;;;;;4.32;1.65;;;;;;;;;;4911544;28;20110;-61
2021/05/28 07:53:14;;;;;;;2.45;1.58;;;;;;;;;;4912844;29;20019;-61
2021/05/28 07:55:40;;;;;;;4.65;1.40;;;;;;;;;;4907384;29;20040;-60
2021/05/28 07:58:06;;;;;;;2.58;1.05;;;;;;;;;;4907148;29;20031;-61
2021/05/28 08:00:34;;;;;;;4.97;1.90;;;;;;;;;;4912709;29;20039;-61
2021/05/28 08:03:05;;;;;;;7.43;1.80;;;;;;;;;;4890812;29;20036;-61
2021/05/28 08:05:31;;;;;;;1.55;1.20;;;;;;;;;;4908344;29;20038;-60
2021/05/28 08:07:58;;;;;;;3.67;1.70;;;;;;;;;;4904405;29;20043;-61
2021/05/28 08:10:24;;;;;;;4.65;1.65;;;;;;;;;;4906637;29;20027;-61
2021/05/28 08:12:50;;;;;;;5.10;1.08;;;;;;;;;;4908838;29;20111;-64
2021/05/28 08:15:17;;;;;;;4.07;1.38;;;;;;;;;;4907974;29;20170;-61
2021/05/28 08:17:45;;;;;;;3.30;1.17;;;;;;;;;;4906650;29;20067;-61
2021/05/28 08:20:14;;;;;;;1.52;1.27;;;;;;;;;;4919267;29;20051;-61
2021/05/28 08:22:40;;;;;;;4.43;1.40;;;;;;;;;;4907462;29;20835;-62
2021/05/28 08:25:07;;;;;;;4.15;1.38;;;;;;;;;;4904093;29;20055;-62
2021/05/28 08:27:32;;;;;;;5.45;1.20;;;;;;;;;;4903738;29;20054;-63
2021/05/28 08:29:58;;;;;;;4.88;1.40;;;;;;;;;;4905226;29;20046;-62
2021/05/28 08:32:24;;;;;;;3.83;1.40;;;;;;;;;;4906027;29;20031;-62
2021/05/28 08:34:49;;;;;;;1.75;1.05;;;;;;;;;;4891515;29;20047;-62
2021/05/28 08:37:15;;;;;;;4.53;1.77;;;;;;;;;;4906649;29;20023;-62
2021/05/28 08:39:43;;;;;;;4.18;1.23;;;;;;;;;;4905336;29;22139;-63
2021/05/28 08:42:10;;;;;;;3.85;1.33;;;;;;;;;;4905638;29;20028;-61
2021/05/28 08:44:40;;;;;;;1.23;0.70;;;;;;;;;;4906587;29;20058;-61
2021/05/28 08:47:06;;;;;;;0.77;0.65;;;;;;;;;;4904328;29;20027;-61
2021/05/28 08:49:37;;;;;;;3.35;0.90;;;;;;;;;;4906222;29;20503;-63
2021/05/28 08:52:05;;;;;;;2.92;0.93;;;;;;;;;;4906129;29;20063;-62
2021/05/28 08:54:33;;;;;;;1.10;0.63;;;;;;;;;;4905827;29;20024;-62
2021/05/28 08:56:59;;;;;;;3.40;1.10;;;;;;;;;;4905403;29;20086;-62
2021/05/28 08:59:27;;;;;;;3.60;1.08;;;;;;;;;;4904629;29;20047;-62
2021/05/28 09:01:53;;;;;;;1.35;0.90;;;;;;;;;;4905705;29;20039;-61
2021/05/28 09:04:20;;;;;;;1.75;1.00;;;;;;;;;;4907093;29;20059;-62
2021/05/28 09:06:51;;;;;;;2.28;0.90;;;;;;;;;;4906645;29;20050;-62
2021/05/28 09:09:17;;;;;;;2.90;1.17;;;;;;;;;;4907497;29;20028;-61
2021/05/28 09:11:55;;;;;;;2.35;0.98;;;;;;;;;;4905204;29;20570;-62
2021/05/28 09:14:40;;;;;;;1.95;1.08;;;;;;;;;;4887572;29;20643;-62
2021/05/28 09:17:07;;;;;;;3.47;1.13;;;;;;;;;;4901699;29;20036;-61
2021/05/28 09:19:36;;;;;;;2.20;0.85;;;;;;;;;;4890625;29;20110;-61
2021/05/28 09:22:03;;;;;;;2.90;0.98;;;;;;;;;;4896285;29;20044;-62
2021/05/28 09:24:33;;;;;;;2.38;0.73;;;;;;;;;;4906051;29;20637;-60
2021/05/28 09:27:18;;;;;;;6.53;1.20;;;;;;;;;;4884842;29;20027;-61
2021/05/28 09:30:02;;;;;;;1.50;1.00;;;;;;;;;;4907191;29;20250;-62
2021/05/28 09:32:31;;;;;;;2.65;1.08;;;;;;;;;;4903422;29;20236;-62
2021/05/28 09:34:58;;;;;;;2.50;1.13;;;;;;;;;;4906140;29;20710;-61
2021/05/28 09:37:37;;;;;;;6.25;1.08;;;;;;;;;;4904791;29;20032;-62
2021/05/28 09:40:19;;;;;;;3.53;1.30;;;;;;;;;;4904266;29;20404;-64
2021/05/28 09:42:55;;;;;;;2.10;0.85;;;;;;;;;;4905224;29;20036;-61
2021/05/28 09:45:33;;;;;;;3.45;1.60;;;;;;;;;;4909948;29;20368;-62
2021/05/28 09:48:00;;;;;;;3.15;1.20;;;;;;;;;;4904299;29;20036;-65
2021/05/28 09:50:32;;;;;;;1.90;0.80;;;;;;;;;;4904580;29;20042;-62
2021/05/28 09:53:02;;;;;;;3.28;1.08;;;;;;;;;;4906513;29;20123;-62
2021/05/28 09:55:29;;;;;;;2.55;1.73;;;;;;;;;;4904454;29;20035;-62
2021/05/28 09:57:57;;;;;;;3.22;0.95;;;;;;;;;;4906540;29;20038;-62
2021/05/28 10:00:32;;;;;;;2.53;1.05;;;;;;;;;;4906381;29;20035;-64
2021/05/28 10:03:21;;;;;;;2.25;1.40;;;;;;;;;;4901511;29;20163;-62
2021/05/28 10:05:48;;;;;;;3.88;1.33;;;;;;;;;;4902920;29;21720;-63
2021/05/28 10:08:15;;;;;;;2.67;1.08;;;;;;;;;;4905356;29;20043;-63
2021/05/28 10:10:47;;;;;;;2.08;1.02;;;;;;;;;;4906225;29;20610;-61
2021/05/28 10:13:16;;;;;;;1.48;1.30;;;;;;;;;;4921168;29;20234;-62
2021/05/28 10:15:49;;;;;;;2.00;1.23;;;;;;;;;;4908312;29;20034;-61
2021/05/28 10:18:16;;;;;;;4.87;1.07;;;;;;;;;;4895285;29;20038;-63
2021/05/28 10:20:43;;;;;;;2.60;1.05;;;;;;;;;;4905141;29;21064;-63
2021/05/28 10:23:10;;;;;;;5.20;1.33;;;;;;;;;;4894467;29;20035;-62
2021/05/28 10:25:48;;;;;;;2.60;1.23;;;;;;;;;;4908723;29;20760;-67
2021/05/28 10:28:15;;;;;;;2.20;1.52;;;;;;;;;;4921619;29;20588;-62
2021/05/28 10:30:46;;;;;;;4.28;1.38;;;;;;;;;;4908051;29;20035;-61
2021/05/28 10:33:17;;;;;;;3.50;1.00;;;;;;;;;;4921762;28;20027;-60
2021/05/28 10:35:47;;;;;;;2.15;1.17;;;;;;;;;;4907473;29;20040;-63
2021/05/28 10:38:31;;;;;;;3.05;1.20;;;;;;;;;;4905563;29;20498;-62
2021/05/28 10:41:02;;;;;;;1.85;1.08;;;;;;;;;;4917497;28;20650;-61
2021/05/28 10:43:28;;;;;;;1.85;1.20;;;;;;;;;;4903336;29;20035;-61
2021/05/28 10:45:57;;;;;;;1.95;1.00;;;;;;;;;;4905072;29;20031;-61
2021/05/28 10:48:38;;;;;;;1.73;1.00;;;;;;;;;;4889609;29;20512;-62
2021/05/28 10:51:22;;;;;;;3.20;1.25;;;;;;;;;;4903468;29;20114;-63
2021/05/28 10:53:50;;;;;;;3.58;1.05;;;;;;;;;;4905460;29;20047;-63
2021/05/28 10:56:17;;;;;;;1.85;0.93;;;;;;;;;;4902789;29;20059;-64
2021/05/28 10:59:05;;;;;;;2.55;1.20;;;;;;;;;;4904503;29;20074;-65
2021/05/28 11:01:31;;;;;;;2.95;0.80;;;;;;;;;;4898973;29;20043;-62
2021/05/28 11:04:03;;;;;;;1.02;0.50;;;;;;;;;;4905937;29;20102;-61
2021/05/28 11:06:30;;;;;;;1.52;0.63;;;;;;;;;;4902954;29;20043;-58
2021/05/28 11:09:08;;;;;;;1.08;0.80;;;;;;;;;;4905774;29;20075;-63
2021/05/28 11:11:36;;;;;;;0.80;0.55;;;;;;;;;;4890149;29;20039;-63
2021/05/28 11:14:09;;;;;;;1.65;0.70;;;;;;;;;;4917982;28;21728;-65
2021/05/28 11:16:57;;;;;;;0.75;0.43;;;;;;;;;;4902405;29;20028;-62
2021/05/28 11:19:24;;;;;;;2.10;0.52;;;;;;;;;;4902823;29;20134;-61
2021/05/28 11:21:59;;;;;;;2.10;0.55;;;;;;;;;;4903328;29;20039;-64
2021/05/28 11:24:58;;;;;;;1.98;0.90;;;;;;;;;;4919418;29;20102;-62
2021/05/28 11:27:24;;;;;;;3.30;0.93;;;;;;;;;;4888289;29;20052;-63
2021/05/28 11:29:54;;;;;;;0.88;0.68;;;;;;;;;;4901640;29;20122;-61
2021/05/28 11:32:30;;;;;;;2.75;1.10;;;;;;;;;;4903844;29;20036;-62
2021/05/28 11:35:11;;;;;;;2.70;0.52;;;;;;;;;;4907806;29;20655;-61
2021/05/28 11:37:38;;;;;;;1.45;1.10;;;;;;;;;;4904748;29;20032;-62
2021/05/28 11:40:11;;;;;;;1.05;0.50;;;;;;;;;;4899588;29;20059;-62
2021/05/28 11:42:40;;;;;;;4.18;1.20;;;;;;;;;;4906441;29;20043;-61
2021/05/28 11:45:07;;;;;;;2.47;0.80;;;;;;;;;;4905643;29;20039;-62
2021/05/28 11:47:33;;;;;;;2.20;0.73;;;;;;;;;;4921230;28;20036;-63
2021/05/28 11:50:02;;;;;;;2.58;0.90;;;;;;;;;;4907223;29;20210;-61
2021/05/28 11:52:28;;;;;;;1.27;0.70;;;;;;;;;;4919107;29;20123;-61
2021/05/28 11:55:08;;;;;;;0.88;0.77;;;;;;;;;;4905996;29;20028;-61
2021/05/28 11:57:34;;;;;;;2.38;0.75;;;;;;;;;;4885197;29;20162;-60
2021/05/28 12:00:00;;;;;;;0.90;0.70;;;;;;;;;;4903929;29;20027;-62
2021/05/28 12:02:43;;;;;;;1.20;0.52;;;;;;;;;;4901343;29;20063;-59
2021/05/28 12:05:22;;;;;;;1.00;0.60;;;;;;;;;;4906623;29;20115;-62
2021/05/28 12:07:47;;;;;;;2.58;0.85;;;;;;;;;;4899543;29;20063;-61
2021/05/28 12:10:22;;;;;;;1.38;0.57;;;;;;;;;;4902695;29;20036;-59
2021/05/28 12:12:57;;;;;;;1.65;0.65;;;;;;;;;;4904037;29;20036;-61
2021/05/28 12:15:24;;;;;;;0.60;0.40;;;;;;;;;;4917870;28;20171;-62
2021/05/28 12:17:51;;;;;;;1.48;0.60;;;;;;;;;;4898758;29;20036;-61
2021/05/28 12:20:18;;;;;;;3.83;0.85;;;;;;;;;;4902729;29;20255;-61
2021/05/28 12:23:00;;;;;;;1.10;0.80;;;;;;;;;;4901151;29;20062;-62
2021/05/28 12:25:33;;;;;;;0.68;0.40;;;;;;;;;;4915567;28;21059;-61
2021/05/28 12:28:10;;;;;;;1.58;0.40;;;;;;;;;;4902135;29;20040;-61
2021/05/28 12:30:39;;;;;;;2.25;0.70;;;;;;;;;;4901518;29;20699;-62
2021/05/28 12:33:08;;;;;;;0.00;0.00;;;;;;;;;;4896684;29;20139;-60
2021/05/28 12:35:37;;;;;;;0.00;0.00;;;;;;;;;;4900176;29;20040;-61
2021/05/28 12:38:02;;;;;;;0.80;0.28;;;;;;;;;;4901162;29;20036;-61
2021/05/28 12:40:32;;;;;;;0.00;0.00;;;;;;;;;;4887765;29;20157;-62
2021/05/28 12:42:58;;;;;;;0.00;0.00;;;;;;;;;;4901263;29;20059;-61
2021/05/28 12:45:32;;;;;;;0.00;0.00;;;;;;;;;;4901574;29;20040;-63
2021/05/28 12:47:58;;;;;;;0.00;0.00;;;;;;;;;;4899004;29;20171;-63
2021/05/28 12:50:32;;;;;;;0.10;0.10;;;;;;;;;;4900385;29;20887;-62
2021/05/28 12:52:59;;;;;;;0.57;0.47;;;;;;;;;;4917051;28;20135;-62
2021/05/28 12:55:31;;;;;;;0.00;0.00;;;;;;;;;;4915377;28;22131;-61
2021/05/28 12:57:59;;;;;;;0.30;0.03;;;;;;;;;;4900098;29;20190;-64
2021/05/28 13:00:33;;;;;;;0.75;0.13;;;;;;;;;;4906106;29;20039;-64
2021/05/28 13:03:00;;;;;;;0.00;0.00;;;;;;;;;;4905927;29;20032;-61
2021/05/28 13:05:31;;;;;;;0.00;0.00;;;;;;;;;;4905970;29;20027;-61
2021/05/28 13:08:00;;;;;;;0.00;0.00;;;;;;;;;;4904394;29;20032;-65
2021/05/28 13:10:26;;;;;;;0.05;0.00;;;;;;;;;;4913908;28;20040;-63
2021/05/28 13:12:53;;;;;;;0.00;0.00;;;;;;;;;;4907088;29;20042;-61
2021/05/28 13:15:26;;;;;;;3.00;0.47;;;;;;;;;;4907114;29;20028;-61
2021/05/28 13:17:52;;;;;;;0.47;0.00;;;;;;;;;;4916784;28;20031;-61
2021/05/28 13:20:19;;;;;;;0.10;0.10;;;;;;;;;;4904971;29;20039;-61
2021/05/28 13:22:51;;;;;;;0.00;0.00;;;;;;;;;;4905427;29;20040;-60
2021/05/28 13:25:22;;;;;;;0.00;0.00;;;;;;;;;;4905268;29;20562;-66
2021/05/28 13:27:59;;;;;;;0.20;0.10;;;;;;;;;;4902198;29;20036;-63
2021/05/28 13:30:24;;;;;;;0.00;0.00;;;;;;;;;;4903697;29;20135;-61
2021/05/28 13:32:50;;;;;;;0.00;0.00;;;;;;;;;;4904846;29;20111;-60
2021/05/28 13:35:18;;;;;;;0.00;0.00;;;;;;;;;;4906417;29;22074;-61
2021/05/28 13:37:48;;;;;;;0.15;0.10;;;;;;;;;;4921204;28;20028;-61
2021/05/28 13:40:14;;;;;;;0.00;0.00;;;;;;;;;;4896884;29;20056;-60
2021/05/28 13:42:45;;;;;;;0.10;0.10;;;;;;;;;;4903783;29;21120;-62
2021/05/28 13:45:11;;;;;;;0.00;0.00;;;;;;;;;;4902748;28;21058;-60
2021/05/28 13:47:36;;;;;;;0.88;0.43;;;;;;;;;;4897591;29;20027;-65
2021/05/28 13:50:03;;;;;;;0.00;0.00;;;;;;;;;;4909057;29;20086;-60
2021/05/28 13:52:28;;;;;;;0.00;0.00;;;;;;;;;;4907093;29;20027;-62
2021/05/28 13:54:54;;;;;;;0.00;0.00;;;;;;;;;;4893532;29;20047;-61
2021/05/28 13:57:24;;;;;;;0.10;0.10;;;;;;;;;;4907222;29;20036;-60
2021/05/28 13:59:49;;;;;;;0.00;0.00;;;;;;;;;;4904116;29;20035;-62
2021/05/28 14:02:16;;;;;;;0.20;0.20;;;;;;;;;;4905536;29;20187;-60
2021/05/28 14:04:42;;;;;;;0.00;0.00;;;;;;;;;;4907758;29;20403;-60
2021/05/28 14:07:08;;;;;;;0.00;0.00;;;;;;;;;;4910710;29;20785;-60
2021/05/28 14:09:36;;;;;;;0.00;0.00;;;;;;;;;;4905261;29;20459;-60
2021/05/28 14:12:02;;;;;;;0.08;0.08;;;;;;;;;;4905813;29;20043;-60
2021/05/28 14:14:28;;;;;;;0.32;0.28;;;;;;;;;;4906798;29;20074;-60
2021/05/28 14:16:53;;;;;;;0.00;0.00;;;;;;;;;;4907085;29;20067;-60
2021/05/28 14:19:23;;;;;;;0.00;0.00;;;;;;;;;;4908885;29;20036;-60
2021/05/28 14:21:48;;;;;;;0.00;0.00;;;;;;;;;;4898265;29;20704;-61
2021/05/28 14:24:14;;;;;;;0.00;0.00;;;;;;;;;;4907246;29;20024;-61
2021/05/28 14:26:43;;;;;;;0.00;0.00;;;;;;;;;;4907827;29;20134;-66
2021/05/28 14:29:11;;;;;;;4.85;0.57;;;;;;;;;;4909289;29;20039;-60
2021/05/28 14:31:39;;;;;;;0.08;0.08;;;;;;;;;;4906053;29;20036;-59
2021/05/28 14:34:05;;;;;;;0.03;0.03;;;;;;;;;;4904861;29;20075;-59
2021/05/28 14:36:35;;;;;;;0.13;0.13;;;;;;;;;;4908558;29;20074;-60
2021/05/28 14:39:03;;;;;;;0.00;0.00;;;;;;;;;;4891585;29;22072;-60
2021/05/28 14:41:29;;;;;;;0.00;0.00;;;;;;;;;;4906709;29;20066;-61
2021/05/28 14:44:02;;;;;;;0.00;0.00;;;;;;;;;;4907509;29;20051;-61
2021/05/28 14:46:28;;;;;;;0.00;0.00;;;;;;;;;;4906186;29;20083;-60